sensor_id;sensor_type;location;lat;lon;timestamp;pressure;altitude;pressure_sealevel;temperature;humidity
73306;BME280;61530;51.158;0.880;2023-04-26T00:00:18;1016.66;;;3.9375;34.4709
73306;BME280;61530;51.158;0.880;2023-04-26T00:01:21;1016.66;;;4.0625;34.6146
73306;BME280;61530;51.158;0.880;2023-04-26T00:02:25;1016.68;;;4.0;34.8589
73306;BME280;61530;51.158;0.880;2023-04-26T00:03:28;1016.65;;;3.9375;34.6255
73306;BME280;61530;51.158;0.880;2023-04-26T00:04:34;1016.65;;;4.0;34.8357
73306;BME280;61530;51.158;0.880;2023-04-26T00:05:37;1016.62;;;4.0;35.0359
73306;BME280;61530;51.158;0.880;2023-04-26T00:06:41;1016.62;;;4.0625;34.8213
73306;BME280;61530;51.158;0.880;2023-04-26T00:07:44;1016.61;;;4.0;34.7074
73306;BME280;61530;51.158;0.880;2023-04-26T00:08:50;1016.61;;;3.9375;34.6563
73306;BME280;61530;51.158;0.880;2023-04-26T00:09:53;1016.63;;;3.9375;35.2984
73306;BME280;61530;51.158;0.880;2023-04-26T00:10:57;1016.59;;;4.0;34.8037
73306;BME280;61530;51.158;0.880;2023-04-26T00:12:00;1016.62;;;3.875;35.2196
73306;BME280;61530;51.158;0.880;2023-04-26T00:13:06;1016.62;;;3.8125;34.8608
73306;BME280;61530;51.158;0.880;2023-04-26T00:14:09;1016.64;;;3.875;34.6604
73306;BME280;61530;51.158;0.880;2023-04-26T00:15:13;1016.63;;;3.875;34.5638
73306;BME280;61530;51.158;0.880;2023-04-26T00:16:16;1016.66;;;3.9375;34.847
73306;BME280;61530;51.158;0.880;2023-04-26T00:17:23;1016.66;;;4.0;34.7594
73306;BME280;61530;51.158;0.880;2023-04-26T00:18:25;1016.7;;;3.875;35.1862
73306;BME280;61530;51.158;0.880;2023-04-26T00:19:29;1016.67;;;3.875;34.6789
73306;BME280;61530;51.158;0.880;2023-04-26T00:20:32;1016.68;;;3.6875;34.8782
73306;BME280;61530;51.158;0.880;2023-04-26T00:21:38;1016.68;;;3.8125;35.1908
73306;BME280;61530;51.158;0.880;2023-04-26T00:22:41;1016.64;;;3.75;34.8152
73306;BME280;61530;51.158;0.880;2023-04-26T00:23:45;1016.66;;;3.6875;34.5757
73306;BME280;61530;51.158;0.880;2023-04-26T00:24:48;1016.68;;;3.625;35.0262
73306;BME280;61530;51.158;0.880;2023-04-26T00:25:55;1016.65;;;3.6875;35.2722
73306;BME280;61530;51.158;0.880;2023-04-26T00:26:57;1016.67;;;3.75;34.7045
73306;BME280;61530;51.158;0.880;2023-04-26T00:28:01;1016.69;;;3.75;35.1529
73306;BME280;61530;51.158;0.880;2023-04-26T00:29:04;1016.69;;;3.6875;34.909
73306;BME280;61530;51.158;0.880;2023-04-26T00:30:10;1016.69;;;3.75;34.97
73306;BME280;61530;51.158;0.880;2023-04-26T00:31:14;1016.7;;;3.6875;34.8052
73306;BME280;61530;51.158;0.880;2023-04-26T00:32:17;1016.7;;;3.6875;34.7935
73306;BME280;61530;51.158;0.880;2023-04-26T00:33:20;1016.69;;;3.625;34.6576
73306;BME280;61530;51.158;0.880;2023-04-26T00:34:31;1016.71;;;3.6875;35.0685
73306;BME280;61530;51.158;0.880;2023-04-26T00:35:29;1016.67;;;3.6875;35.5298
73306;BME280;61530;51.158;0.880;2023-04-26T00:36:33;1016.61;;;3.625;34.9315
73306;BME280;61530;51.158;0.880;2023-04-26T00:37:36;1016.59;;;3.5625;34.7193
73306;BME280;61530;51.158;0.880;2023-04-26T00:38:42;1016.54;;;3.625;34.5433
73306;BME280;61530;51.158;0.880;2023-04-26T00:39:45;1016.55;;;3.5625;34.9424
73306;BME280;61530;51.158;0.880;2023-04-26T00:40:49;1016.52;;;3.5625;34.6911
73306;BME280;61530;51.158;0.880;2023-04-26T00:41:52;1016.49;;;3.5625;34.784
73306;BME280;61530;51.158;0.880;2023-04-26T00:42:58;1016.48;;;3.5;35.2462
73306;BME280;61530;51.158;0.880;2023-04-26T00:44:01;1016.47;;;3.5625;34.9334
73306;BME280;61530;51.158;0.880;2023-04-26T00:45:06;1016.41;;;3.375;35.0744
73306;BME280;61530;51.158;0.880;2023-04-26T00:46:08;1016.41;;;3.375;34.9146
73306;BME280;61530;51.158;0.880;2023-04-26T00:47:14;1016.37;;;3.3125;35.0059
73306;BME280;61530;51.158;0.880;2023-04-26T00:48:17;1016.31;;;3.375;34.9726
73306;BME280;61530;51.158;0.880;2023-04-26T00:49:23;1016.27;;;3.3125;35.1148
73306;BME280;61530;51.158;0.880;2023-04-26T00:50:24;1016.26;;;3.3125;35.3757
73306;BME280;61530;51.158;0.880;2023-04-26T00:51:30;1016.24;;;3.4375;35.1592
73306;BME280;61530;51.158;0.880;2023-04-26T00:52:33;1016.23;;;3.3125;35.5253
73306;BME280;61530;51.158;0.880;2023-04-26T00:53:37;1016.23;;;3.375;35.3189
73306;BME280;61530;51.158;0.880;2023-04-26T00:54:41;1016.25;;;3.3125;34.9149
73306;BME280;61530;51.158;0.880;2023-04-26T00:55:46;1016.25;;;3.1875;35.8629
73306;BME280;61530;51.158;0.880;2023-04-26T00:56:49;1016.26;;;3.0;35.7244
73306;BME280;61530;51.158;0.880;2023-04-26T00:57:53;1016.26;;;2.9375;35.4998
73306;BME280;61530;51.158;0.880;2023-04-26T00:58:56;1016.28;;;2.9375;35.913
73306;BME280;61530;51.158;0.880;2023-04-26T01:00:02;1016.28;;;2.875;35.7946
73306;BME280;61530;51.158;0.880;2023-04-26T01:01:05;1016.27;;;2.875;35.8466
73306;BME280;61530;51.158;0.880;2023-04-26T01:02:09;1016.27;;;2.9375;35.5624
73306;BME280;61530;51.158;0.880;2023-04-26T01:03:12;1016.25;;;3.0;36.0903
73306;BME280;61530;51.158;0.880;2023-04-26T01:04:18;1016.23;;;3.0625;35.3749
73306;BME280;61530;51.158;0.880;2023-04-26T01:05:21;1016.24;;;2.9375;35.8598
73306;BME280;61530;51.158;0.880;2023-04-26T01:06:25;1016.2;;;3.0;35.8699
73306;BME280;61530;51.158;0.880;2023-04-26T01:07:28;1016.18;;;3.0625;35.646
73306;BME280;61530;51.158;0.880;2023-04-26T01:08:34;1016.18;;;3.125;35.0212
73306;BME280;61530;51.158;0.880;2023-04-26T01:09:37;1016.21;;;3.0625;35.7715
73306;BME280;61530;51.158;0.880;2023-04-26T01:10:41;1016.21;;;3.125;35.8504
73306;BME280;61530;51.158;0.880;2023-04-26T01:11:44;1016.23;;;3.125;35.1401
73306;BME280;61530;51.158;0.880;2023-04-26T01:12:50;1016.22;;;3.1875;35.105
73306;BME280;61530;51.158;0.880;2023-04-26T01:13:53;1016.22;;;3.125;34.6955
73306;BME280;61530;51.158;0.880;2023-04-26T01:14:58;1016.21;;;3.125;35.4301
73306;BME280;61530;51.158;0.880;2023-04-26T01:16:01;1016.19;;;3.1875;35.526
73306;BME280;61530;51.158;0.880;2023-04-26T01:17:06;1016.17;;;3.1875;35.3039
73306;BME280;61530;51.158;0.880;2023-04-26T01:18:09;1016.16;;;3.1875;35.4633
73306;BME280;61530;51.158;0.880;2023-04-26T01:19:13;1016.14;;;3.1875;35.4066
73306;BME280;61530;51.158;0.880;2023-04-26T01:20:16;1016.1;;;3.125;34.7086
73306;BME280;61530;51.158;0.880;2023-04-26T01:21:22;1016.11;;;3.125;34.9872
73306;BME280;61530;51.158;0.880;2023-04-26T01:22:25;1016.11;;;3.125;34.4008
73306;BME280;61530;51.158;0.880;2023-04-26T01:23:29;1016.15;;;3.125;35.0001
73306;BME280;61530;51.158;0.880;2023-04-26T01:24:34;1016.14;;;3.0625;34.8901
73306;BME280;61530;51.158;0.880;2023-04-26T01:25:38;1016.16;;;3.0;35.6067
73306;BME280;61530;51.158;0.880;2023-04-26T01:26:42;1016.17;;;3.0625;35.7321
73306;BME280;61530;51.158;0.880;2023-04-26T01:27:44;1016.18;;;3.0625;35.3629
73306;BME280;61530;51.158;0.880;2023-04-26T01:28:48;1016.16;;;3.1875;34.7088
73306;BME280;61530;51.158;0.880;2023-04-26T01:29:54;1016.11;;;3.125;35.4197
73306;BME280;61530;51.158;0.880;2023-04-26T01:30:57;1016.09;;;3.1875;35.4476
73306;BME280;61530;51.158;0.880;2023-04-26T01:32:01;1016.1;;;3.1875;35.3445
73306;BME280;61530;51.158;0.880;2023-04-26T01:33:04;1016.09;;;3.0625;35.316
73306;BME280;61530;51.158;0.880;2023-04-26T01:34:10;1016.08;;;3.1875;35.6913
73306;BME280;61530;51.158;0.880;2023-04-26T01:35:14;1016.06;;;3.25;35.2368
73306;BME280;61530;51.158;0.880;2023-04-26T01:36:18;1016.05;;;3.1875;35.1459
73306;BME280;61530;51.158;0.880;2023-04-26T01:37:20;1016.03;;;3.125;35.5725
73306;BME280;61530;51.158;0.880;2023-04-26T01:38:26;1016.03;;;3.125;35.1402
73306;BME280;61530;51.158;0.880;2023-04-26T01:39:29;1016.09;;;3.1875;35.4597
73306;BME280;61530;51.158;0.880;2023-04-26T01:40:33;1016.07;;;3.0625;36.1127
73306;BME280;61530;51.158;0.880;2023-04-26T01:41:51;1016.07;;;3.1875;35.6923
73306;BME280;61530;51.158;0.880;2023-04-26T01:42:42;1016.08;;;3.25;35.2529
73306;BME280;61530;51.158;0.880;2023-04-26T01:43:46;1016.08;;;3.1875;34.789
73306;BME280;61530;51.158;0.880;2023-04-26T01:44:50;1016.1;;;3.0;34.6239
73306;BME280;61530;51.158;0.880;2023-04-26T01:45:52;1016.13;;;3.0625;35.039
73306;BME280;61530;51.158;0.880;2023-04-26T01:46:58;1016.12;;;3.0625;35.6754
73306;BME280;61530;51.158;0.880;2023-04-26T01:48:01;1016.09;;;3.1875;35.5267
73306;BME280;61530;51.158;0.880;2023-04-26T01:49:05;1016.11;;;3.1875;35.5677
73306;BME280;61530;51.158;0.880;2023-04-26T01:50:09;1016.07;;;3.125;35.4012
73306;BME280;61530;51.158;0.880;2023-04-26T01:51:14;1016.07;;;3.1875;35.1904
73306;BME280;61530;51.158;0.880;2023-04-26T01:52:17;1016.05;;;3.1875;35.2539
73306;BME280;61530;51.158;0.880;2023-04-26T01:53:21;1016.04;;;3.1875;35.925
73306;BME280;61530;51.158;0.880;2023-04-26T01:54:24;1016.05;;;3.1875;35.3782
73306;BME280;61530;51.158;0.880;2023-04-26T01:55:30;1016.07;;;3.125;35.367
73306;BME280;61530;51.158;0.880;2023-04-26T01:56:33;1016.09;;;3.1875;35.0929
73306;BME280;61530;51.158;0.880;2023-04-26T01:57:36;1016.12;;;3.0625;34.305
73306;BME280;61530;51.158;0.880;2023-04-26T01:58:40;1016.11;;;3.0625;34.6441
73306;BME280;61530;51.158;0.880;2023-04-26T01:59:46;1016.06;;;3.125;35.2983
73306;BME280;61530;51.158;0.880;2023-04-26T02:00:49;1016.06;;;3.125;35.5214
73306;BME280;61530;51.158;0.880;2023-04-26T02:01:53;1016.08;;;3.0;35.3571
73306;BME280;61530;51.158;0.880;2023-04-26T02:02:56;1016.07;;;3.125;35.9819
73306;BME280;61530;51.158;0.880;2023-04-26T02:04:02;1016.08;;;3.1875;35.7131
73306;BME280;61530;51.158;0.880;2023-04-26T02:05:07;1016.1;;;3.125;35.5504
73306;BME280;61530;51.158;0.880;2023-04-26T02:06:09;1016.07;;;3.125;35.6181
73306;BME280;61530;51.158;0.880;2023-04-26T02:07:12;1016.1;;;3.1875;35.7316
73306;BME280;61530;51.158;0.880;2023-04-26T02:08:18;1016.1;;;3.1875;35.9828
73306;BME280;61530;51.158;0.880;2023-04-26T02:09:21;1016.09;;;3.25;35.8816
73306;BME280;61530;51.158;0.880;2023-04-26T02:10:25;1016.06;;;3.3125;35.6012
73306;BME280;61530;51.158;0.880;2023-04-26T02:11:28;1016.05;;;3.1875;35.4705
73306;BME280;61530;51.158;0.880;2023-04-26T02:12:34;1016.05;;;3.25;35.6751
73306;BME280;61530;51.158;0.880;2023-04-26T02:13:37;1016.04;;;3.25;35.0259
73306;BME280;61530;51.158;0.880;2023-04-26T02:14:41;1016.06;;;3.3125;35.6935
73306;BME280;61530;51.158;0.880;2023-04-26T02:15:45;1016.06;;;3.3125;35.5627
73306;BME280;61530;51.158;0.880;2023-04-26T02:16:50;1016.02;;;3.25;36.0219
73306;BME280;61530;51.158;0.880;2023-04-26T02:17:53;1016.07;;;3.3125;35.8958
73306;BME280;61530;51.158;0.880;2023-04-26T02:18:57;1016.05;;;3.1875;35.4121
73306;BME280;61530;51.158;0.880;2023-04-26T02:20:00;1016.03;;;3.25;35.4126
73306;BME280;61530;51.158;0.880;2023-04-26T02:21:07;1016.02;;;3.125;35.1115
73306;BME280;61530;51.158;0.880;2023-04-26T02:22:09;1016.04;;;3.1875;35.7031
73306;BME280;61530;51.158;0.880;2023-04-26T02:23:13;1016.06;;;3.25;35.2766
73306;BME280;61530;51.158;0.880;2023-04-26T02:24:16;1016.04;;;3.3125;35.3736
73306;BME280;61530;51.158;0.880;2023-04-26T02:25:22;1016.04;;;3.25;36.0847
73306;BME280;61530;51.158;0.880;2023-04-26T02:26:25;1016.04;;;3.125;35.9247
73306;BME280;61530;51.158;0.880;2023-04-26T02:27:29;1016.06;;;3.3125;35.6335
73306;BME280;61530;51.158;0.880;2023-04-26T02:28:32;1016.05;;;3.3125;35.5835
73306;BME280;61530;51.158;0.880;2023-04-26T02:29:38;1016.04;;;3.3125;35.1527
73306;BME280;61530;51.158;0.880;2023-04-26T02:30:41;1016.04;;;3.3125;35.4861
73306;BME280;61530;51.158;0.880;2023-04-26T02:31:45;1016.02;;;3.3125;35.759
73306;BME280;61530;51.158;0.880;2023-04-26T02:32:48;1015.97;;;3.375;35.69
73306;BME280;61530;51.158;0.880;2023-04-26T02:33:54;1015.97;;;3.375;35.5087
73306;BME280;61530;51.158;0.880;2023-04-26T02:34:57;1015.94;;;3.375;35.4684
73306;BME280;61530;51.158;0.880;2023-04-26T02:36:02;1015.92;;;3.25;35.3
73306;BME280;61530;51.158;0.880;2023-04-26T02:37:04;1015.92;;;3.125;35.0989
73306;BME280;61530;51.158;0.880;2023-04-26T02:38:10;1015.9;;;3.25;34.8312
73306;BME280;61530;51.158;0.880;2023-04-26T02:39:13;1015.88;;;3.3125;35.6456
73306;BME280;61530;51.158;0.880;2023-04-26T02:40:17;1015.9;;;3.375;35.7528
73306;BME280;61530;51.158;0.880;2023-04-26T02:41:20;1015.91;;;3.4375;35.0983
73306;BME280;61530;51.158;0.880;2023-04-26T02:42:26;1015.88;;;3.375;35.4281
73306;BME280;61530;51.158;0.880;2023-04-26T02:43:29;1015.86;;;3.375;35.7406
73306;BME280;61530;51.158;0.880;2023-04-26T02:44:33;1015.86;;;3.4375;35.4106
73306;BME280;61530;51.158;0.880;2023-04-26T02:45:40;1015.83;;;3.4375;35.7243
73306;BME280;61530;51.158;0.880;2023-04-26T02:46:42;1015.81;;;3.4375;35.144
73306;BME280;61530;51.158;0.880;2023-04-26T02:47:45;1015.81;;;3.4375;35.3923
73306;BME280;61530;51.158;0.880;2023-04-26T02:48:49;1015.82;;;3.4375;35.1473
73306;BME280;61530;51.158;0.880;2023-04-26T02:49:52;1015.82;;;3.5;35.0724
73306;BME280;61530;51.158;0.880;2023-04-26T02:50:58;1015.9;;;3.4375;35.0681
73306;BME280;61530;51.158;0.880;2023-04-26T02:52:01;1015.98;;;3.375;34.9649
73306;BME280;61530;51.158;0.880;2023-04-26T02:53:05;1015.94;;;3.4375;34.9745
73306;BME280;61530;51.158;0.880;2023-04-26T02:54:08;1015.99;;;3.4375;34.451
73306;BME280;61530;51.158;0.880;2023-04-26T02:55:14;1016.02;;;3.375;35.3978
73306;BME280;61530;51.158;0.880;2023-04-26T02:56:17;1015.98;;;3.5;35.3688
73306;BME280;61530;51.158;0.880;2023-04-26T02:57:21;1015.96;;;3.5;35.3856
73306;BME280;61530;51.158;0.880;2023-04-26T02:58:24;1015.93;;;3.5625;35.3632
73306;BME280;61530;51.158;0.880;2023-04-26T02:59:30;1015.94;;;3.5625;35.0158
73306;BME280;61530;51.158;0.880;2023-04-26T03:00:33;1015.94;;;3.5625;35.369
73306;BME280;61530;51.158;0.880;2023-04-26T03:01:37;1015.94;;;3.5;36.275
73306;BME280;61530;51.158;0.880;2023-04-26T03:02:40;1015.94;;;3.5625;35.2489
73306;BME280;61530;51.158;0.880;2023-04-26T03:03:46;1015.91;;;3.5625;35.5125
73306;BME280;61530;51.158;0.880;2023-04-26T03:04:49;1015.89;;;3.5625;35.4499
73306;BME280;61530;51.158;0.880;2023-04-26T03:05:53;1015.91;;;3.625;35.3178
73306;BME280;61530;51.158;0.880;2023-04-26T03:06:56;1015.91;;;3.5;35.5913
73306;BME280;61530;51.158;0.880;2023-04-26T03:08:02;1015.9;;;3.625;34.9435
73306;BME280;61530;51.158;0.880;2023-04-26T03:09:05;1015.9;;;3.5;35.7455
73306;BME280;61530;51.158;0.880;2023-04-26T03:10:09;1015.91;;;3.5625;35.5531
73306;BME280;61530;51.158;0.880;2023-04-26T03:11:12;1015.94;;;3.5625;35.0682
73306;BME280;61530;51.158;0.880;2023-04-26T03:12:18;1015.95;;;3.6875;35.3938
73306;BME280;61530;51.158;0.880;2023-04-26T03:13:22;1015.94;;;3.6875;35.582
73306;BME280;61530;51.158;0.880;2023-04-26T03:14:25;1015.95;;;3.625;35.1381
73306;BME280;61530;51.158;0.880;2023-04-26T03:15:28;1015.94;;;3.5625;36.0025
73306;BME280;61530;51.158;0.880;2023-04-26T03:16:40;1015.93;;;3.625;35.7113
73306;BME280;61530;51.158;0.880;2023-04-26T03:17:37;1015.95;;;3.6875;35.7331
73306;BME280;61530;51.158;0.880;2023-04-26T03:18:41;1015.95;;;3.75;35.6825
73306;BME280;61530;51.158;0.880;2023-04-26T03:19:44;1015.93;;;3.75;35.7151
73306;BME280;61530;51.158;0.880;2023-04-26T03:20:50;1015.93;;;3.75;35.8522
73306;BME280;61530;51.158;0.880;2023-04-26T03:21:53;1015.98;;;3.6875;35.7046
73306;BME280;61530;51.158;0.880;2023-04-26T03:22:57;1015.93;;;3.8125;35.8642
73306;BME280;61530;51.158;0.880;2023-04-26T03:24:00;1015.92;;;3.6875;36.0924
73306;BME280;61530;51.158;0.880;2023-04-26T03:25:06;1015.9;;;3.6875;35.3997
73306;BME280;61530;51.158;0.880;2023-04-26T03:26:09;1015.86;;;3.6875;35.1801
73306;BME280;61530;51.158;0.880;2023-04-26T03:27:13;1015.84;;;3.75;35.2833
73306;BME280;61530;51.158;0.880;2023-04-26T03:28:16;1015.85;;;3.75;36.1785
73306;BME280;61530;51.158;0.880;2023-04-26T03:29:22;1015.84;;;3.75;35.7382
73306;BME280;61530;51.158;0.880;2023-04-26T03:30:25;1015.84;;;3.6875;35.7095
73306;BME280;61530;51.158;0.880;2023-04-26T03:31:29;1015.86;;;3.6875;35.5451
73306;BME280;61530;51.158;0.880;2023-04-26T03:32:32;1015.84;;;3.6875;35.7665
73306;BME280;61530;51.158;0.880;2023-04-26T03:33:38;1015.83;;;3.75;35.6921
73306;BME280;61530;51.158;0.880;2023-04-26T03:34:41;1015.79;;;3.8125;35.2827
73306;BME280;61530;51.158;0.880;2023-04-26T03:35:45;1015.8;;;3.8125;35.3038
73306;BME280;61530;51.158;0.880;2023-04-26T03:36:48;1015.76;;;3.875;35.5488
73306;BME280;61530;51.158;0.880;2023-04-26T03:37:54;1015.74;;;3.875;35.429
73306;BME280;61530;51.158;0.880;2023-04-26T03:38:57;1015.74;;;3.9375;35.4527
73306;BME280;61530;51.158;0.880;2023-04-26T03:40:01;1015.75;;;3.875;35.3769
73306;BME280;61530;51.158;0.880;2023-04-26T03:41:04;1015.72;;;3.8125;35.0399
73306;BME280;61530;51.158;0.880;2023-04-26T03:42:10;1015.73;;;3.875;34.8995
73306;BME280;61530;51.158;0.880;2023-04-26T03:43:13;1015.71;;;3.875;35.4884
73306;BME280;61530;51.158;0.880;2023-04-26T03:44:17;1015.72;;;3.875;35.8337
73306;BME280;61530;51.158;0.880;2023-04-26T03:45:20;1015.69;;;3.8125;35.5561
73306;BME280;61530;51.158;0.880;2023-04-26T03:46:26;1015.67;;;3.75;35.7499
73306;BME280;61530;51.158;0.880;2023-04-26T03:47:29;1015.63;;;3.75;35.2038
73306;BME280;61530;51.158;0.880;2023-04-26T03:48:33;1015.66;;;3.625;35.975
73306;BME280;61530;51.158;0.880;2023-04-26T03:49:36;1015.63;;;3.5;36.0406
73306;BME280;61530;51.158;0.880;2023-04-26T03:50:42;1015.67;;;3.5625;35.6457
73306;BME280;61530;51.158;0.880;2023-04-26T03:51:45;1015.65;;;3.6875;35.2648
73306;BME280;61530;51.158;0.880;2023-04-26T03:52:49;1015.65;;;3.6875;35.7352
73306;BME280;61530;51.158;0.880;2023-04-26T03:53:52;1015.65;;;3.6875;35.6616
73306;BME280;61530;51.158;0.880;2023-04-26T03:54:58;1015.67;;;3.75;35.0688
73306;BME280;61530;51.158;0.880;2023-04-26T03:56:02;1015.66;;;3.8125;35.6856
73306;BME280;61530;51.158;0.880;2023-04-26T03:57:05;1015.66;;;3.8125;35.828
73306;BME280;61530;51.158;0.880;2023-04-26T03:58:08;1015.65;;;3.875;35.3678
73306;BME280;61530;51.158;0.880;2023-04-26T03:59:14;1015.68;;;3.8125;35.2311
73306;BME280;61530;51.158;0.880;2023-04-26T04:00:17;1015.69;;;3.8125;35.7598
73306;BME280;61530;51.158;0.880;2023-04-26T04:01:21;1015.71;;;3.6875;35.1775
73306;BME280;61530;51.158;0.880;2023-04-26T04:02:24;1015.7;;;3.875;35.6114
73306;BME280;61530;51.158;0.880;2023-04-26T04:03:30;1015.66;;;3.8125;35.2597
73306;BME280;61530;51.158;0.880;2023-04-26T04:04:33;1015.65;;;3.75;35.938
73306;BME280;61530;51.158;0.880;2023-04-26T04:05:37;1015.62;;;3.6875;35.5042
73306;BME280;61530;51.158;0.880;2023-04-26T04:06:41;1015.62;;;3.8125;35.8111
73306;BME280;61530;51.158;0.880;2023-04-26T04:07:46;1015.59;;;3.8125;35.5321
73306;BME280;61530;51.158;0.880;2023-04-26T04:08:49;1015.57;;;3.8125;35.2074
73306;BME280;61530;51.158;0.880;2023-04-26T04:09:53;1015.59;;;3.875;35.8349
73306;BME280;61530;51.158;0.880;2023-04-26T04:10:56;1015.57;;;3.8125;35.5912
73306;BME280;61530;51.158;0.880;2023-04-26T04:12:02;1015.57;;;3.75;35.3279
73306;BME280;61530;51.158;0.880;2023-04-26T04:13:05;1015.55;;;3.75;35.2888
73306;BME280;61530;51.158;0.880;2023-04-26T04:14:08;1015.52;;;3.75;34.4725
73306;BME280;61530;51.158;0.880;2023-04-26T04:15:12;1015.52;;;3.8125;34.6777
73306;BME280;61530;51.158;0.880;2023-04-26T04:16:23;1015.49;;;3.8125;34.5406
73306;BME280;61530;51.158;0.880;2023-04-26T04:17:21;1015.49;;;3.8125;35.362
73306;BME280;61530;51.158;0.880;2023-04-26T04:18:25;1015.53;;;3.875;35.3394
73306;BME280;61530;51.158;0.880;2023-04-26T04:19:28;1015.55;;;3.8125;35.6812
73306;BME280;61530;51.158;0.880;2023-04-26T04:20:34;1015.58;;;3.8125;35.2433
73306;BME280;61530;51.158;0.880;2023-04-26T04:21:37;1015.59;;;3.75;35.4321
73306;BME280;61530;51.158;0.880;2023-04-26T04:22:41;1015.59;;;3.8125;35.874
73306;BME280;61530;51.158;0.880;2023-04-26T04:23:44;1015.55;;;3.875;35.2646
73306;BME280;61530;51.158;0.880;2023-04-26T04:24:50;1015.52;;;3.8125;35.5836
73306;BME280;61530;51.158;0.880;2023-04-26T04:25:53;1015.5;;;3.75;35.3429
73306;BME280;61530;51.158;0.880;2023-04-26T04:26:57;1015.48;;;3.75;35.3528
73306;BME280;61530;51.158;0.880;2023-04-26T04:28:01;1015.48;;;3.6875;35.6709
73306;BME280;61530;51.158;0.880;2023-04-26T04:29:06;1015.5;;;3.6875;35.641
73306;BME280;61530;51.158;0.880;2023-04-26T04:30:10;1015.5;;;3.6875;35.6116
73306;BME280;61530;51.158;0.880;2023-04-26T04:31:13;1015.51;;;3.75;35.7881
73306;BME280;61530;51.158;0.880;2023-04-26T04:32:16;1015.53;;;3.8125;35.0547
73306;BME280;61530;51.158;0.880;2023-04-26T04:33:22;1015.56;;;3.875;35.1524
73306;BME280;61530;51.158;0.880;2023-04-26T04:34:25;1015.56;;;3.875;35.4354
73306;BME280;61530;51.158;0.880;2023-04-26T04:35:30;1015.55;;;3.875;35.2355
73306;BME280;61530;51.158;0.880;2023-04-26T04:36:32;1015.5;;;3.875;35.7377
73306;BME280;61530;51.158;0.880;2023-04-26T04:37:38;1015.51;;;3.875;35.6455
73306;BME280;61530;51.158;0.880;2023-04-26T04:38:41;1015.51;;;3.9375;35.8804
73306;BME280;61530;51.158;0.880;2023-04-26T04:39:45;1015.52;;;3.9375;35.8967
73306;BME280;61530;51.158;0.880;2023-04-26T04:40:48;1015.54;;;3.8125;35.7829
73306;BME280;61530;51.158;0.880;2023-04-26T04:41:54;1015.49;;;3.8125;35.749
73306;BME280;61530;51.158;0.880;2023-04-26T04:42:57;1015.5;;;3.75;35.7034
73306;BME280;61530;51.158;0.880;2023-04-26T04:44:01;1015.47;;;3.8125;35.9369
73306;BME280;61530;51.158;0.880;2023-04-26T04:45:05;1015.48;;;3.8125;35.7144
73306;BME280;61530;51.158;0.880;2023-04-26T04:46:10;1015.46;;;3.8125;35.7076
73306;BME280;61530;51.158;0.880;2023-04-26T04:47:13;1015.49;;;3.9375;35.188
73306;BME280;61530;51.158;0.880;2023-04-26T04:48:17;1015.48;;;3.9375;35.7641
73306;BME280;61530;51.158;0.880;2023-04-26T04:49:20;1015.5;;;4.0;35.0747
73306;BME280;61530;51.158;0.880;2023-04-26T04:50:26;1015.5;;;3.9375;35.8805
73306;BME280;61530;51.158;0.880;2023-04-26T04:51:29;1015.49;;;4.0625;35.7301
73306;BME280;61530;51.158;0.880;2023-04-26T04:52:33;1015.49;;;4.0;35.4243
73306;BME280;61530;51.158;0.880;2023-04-26T04:53:36;1015.5;;;3.9375;35.2001
73306;BME280;61530;51.158;0.880;2023-04-26T04:54:42;1015.5;;;3.9375;35.4389
73306;BME280;61530;51.158;0.880;2023-04-26T04:55:45;1015.49;;;4.0;35.5698
73306;BME280;61530;51.158;0.880;2023-04-26T04:56:49;1015.5;;;4.0;35.7033
73306;BME280;61530;51.158;0.880;2023-04-26T04:57:52;1015.51;;;3.9375;35.657
73306;BME280;61530;51.158;0.880;2023-04-26T04:58:58;1015.52;;;3.9375;35.6795
73306;BME280;61530;51.158;0.880;2023-04-26T05:00:01;1015.55;;;3.9375;36.0152
73306;BME280;61530;51.158;0.880;2023-04-26T05:01:05;1015.57;;;3.9375;35.2461
73306;BME280;61530;51.158;0.880;2023-04-26T05:02:08;1015.54;;;4.0;35.4391
73306;BME280;61530;51.158;0.880;2023-04-26T05:03:14;1015.54;;;4.0;35.5256
73306;BME280;61530;51.158;0.880;2023-04-26T05:04:17;1015.52;;;4.0625;35.7747
73306;BME280;61530;51.158;0.880;2023-04-26T05:05:21;1015.55;;;4.125;35.9102
73306;BME280;61530;51.158;0.880;2023-04-26T05:06:25;1015.54;;;4.125;35.2438
73306;BME280;61530;51.158;0.880;2023-04-26T05:07:30;1015.53;;;4.125;35.2449
73306;BME280;61530;51.158;0.880;2023-04-26T05:08:33;1015.55;;;4.1875;35.4208
73306;BME280;61530;51.158;0.880;2023-04-26T05:09:37;1015.55;;;4.1875;35.7451
73306;BME280;61530;51.158;0.880;2023-04-26T05:10:40;1015.54;;;4.125;35.6776
73306;BME280;61530;51.158;0.880;2023-04-26T05:11:46;1015.52;;;4.25;35.3922
73306;BME280;61530;51.158;0.880;2023-04-26T05:12:49;1015.52;;;4.1875;35.734
73306;BME280;61530;51.158;0.880;2023-04-26T05:13:53;1015.51;;;4.375;35.6028
73306;BME280;61530;51.158;0.880;2023-04-26T05:14:56;1015.47;;;4.25;35.7969
73306;BME280;61530;51.158;0.880;2023-04-26T05:16:02;1015.45;;;4.25;35.4889
73306;BME280;61530;51.158;0.880;2023-04-26T05:17:05;1015.43;;;4.3125;35.3576
73306;BME280;61530;51.158;0.880;2023-04-26T05:18:09;1015.44;;;4.25;34.9352
73306;BME280;61530;51.158;0.880;2023-04-26T05:19:12;1015.45;;;4.3125;35.1233
73306;BME280;61530;51.158;0.880;2023-04-26T05:20:18;1015.46;;;4.3125;35.8989
73306;BME280;61530;51.158;0.880;2023-04-26T05:21:21;1015.46;;;4.25;35.7057
73306;BME280;61530;51.158;0.880;2023-04-26T05:22:26;1015.45;;;4.375;35.5669
73306;BME280;61530;51.158;0.880;2023-04-26T05:23:28;1015.44;;;4.375;35.5041
73306;BME280;61530;51.158;0.880;2023-04-26T05:24:34;1015.43;;;4.4375;35.7453
73306;BME280;61530;51.158;0.880;2023-04-26T05:25:37;1015.44;;;4.4375;35.6325
73306;BME280;61530;51.158;0.880;2023-04-26T05:26:41;1015.46;;;4.4375;35.7167
73306;BME280;61530;51.158;0.880;2023-04-26T05:27:44;1015.43;;;4.5;35.233
73306;BME280;61530;51.158;0.880;2023-04-26T05:28:50;1015.43;;;4.5;35.2621
73306;BME280;61530;51.158;0.880;2023-04-26T05:29:53;1015.42;;;4.5625;35.5745
73306;BME280;61530;51.158;0.880;2023-04-26T05:30:57;1015.43;;;4.5;35.7241
73306;BME280;61530;51.158;0.880;2023-04-26T05:32:00;1015.43;;;4.4375;35.7907
73306;BME280;61530;51.158;0.880;2023-04-26T05:33:06;1015.44;;;4.5;35.7204
73306;BME280;61530;51.158;0.880;2023-04-26T05:34:09;1015.44;;;4.4375;36.0616